Time;durP1;ratioP1;P1;durP2;ratioP2;P2;SDS_P1;SDS_P2;PMS_P1;PMS_P2;Temp;Humidity;BMP_temperature;BMP_pressure;BME280_temperature;BME280_humidity;BME280_pressure;Samples;Min_cycle;Max_cycle;Signal;HPM_P1;HPM_P2
2023/05/20 00:02:21;;;;;;;3.83;3.83;;;;;;;-145.94;44.09;77367.25;5117203;28;20246;-70
2023/05/20 00:04:48;;;;;;;4.20;4.20;;;;;;;-145.94;44.09;77361.16;5117411;28;20185;-70
2023/05/20 00:07:14;;;;;;;3.93;3.93;;;;;;;-145.94;44.11;77369.31;5117267;28;20570;-70
2023/05/20 00:09:41;;;;;;;4.57;4.37;;;;;;;-145.94;44.50;77365.22;5117262;28;20601;-71
2023/05/20 00:12:07;;;;;;;4.77;4.57;;;;;;;-145.94;44.22;77379.50;5117522;28;20644;-71
2023/05/20 00:14:34;;;;;;;4.57;4.57;;;;;;;-145.94;44.60;77371.34;5116888;28;20185;-71
2023/05/20 00:17:00;;;;;;;4.33;4.33;;;;;;;-145.94;44.47;77369.31;5117015;28;20221;-71
2023/05/20 00:19:27;;;;;;;3.90;3.57;;;;;;;-145.94;44.45;77375.41;5116799;28;20594;-71
2023/05/20 00:21:56;;;;;;;4.43;4.43;;;;;;;-145.94;44.72;77381.53;5116772;28;20180;-71
2023/05/20 00:24:23;;;;;;;4.03;3.87;;;;;;;-145.94;44.77;77385.63;5116707;28;20651;-70
2023/05/20 00:26:50;;;;;;;4.37;4.37;;;;;;;-145.94;44.58;77385.63;5116867;28;20605;-70
2023/05/20 00:29:16;;;;;;;4.73;4.73;;;;;;;-145.94;45.04;77387.66;5098385;28;20193;-70
2023/05/20 00:31:43;;;;;;;4.40;4.20;;;;;;;-145.94;45.00;77393.78;5098236;28;20193;-70
2023/05/20 00:34:10;;;;;;;4.77;4.40;;;;;;;-145.94;44.68;77393.78;5098294;28;20213;-70
2023/05/20 00:36:36;;;;;;;4.77;4.37;;;;;;;-145.94;44.84;77391.75;5116431;28;20595;-70
2023/05/20 00:39:03;;;;;;;4.93;4.83;;;;;;;-145.94;44.83;77395.81;5116319;28;20651;-70
2023/05/20 00:41:30;;;;;;;4.60;4.53;;;;;;;-145.94;45.12;77397.84;5116464;28;20185;-70
2023/05/20 00:43:56;;;;;;;4.43;4.33;;;;;;;-145.94;44.89;77391.75;5116390;28;20192;-70
2023/05/20 00:46:25;;;;;;;4.43;4.33;;;;;;;-145.94;44.98;77397.84;5116315;28;20643;-70
2023/05/20 00:48:52;;;;;;;4.37;4.07;;;;;;;-145.94;45.41;77408.06;5097922;28;20209;-70
2023/05/20 00:51:18;;;;;;;4.67;4.50;;;;;;;-145.94;45.34;77412.13;5116228;28;20549;-70
2023/05/20 00:53:45;;;;;;;4.57;4.50;;;;;;;-145.94;45.42;77426.41;5116245;28;20212;-70
2023/05/20 00:56:14;;;;;;;5.70;4.60;;;;;;;-145.94;45.79;77426.41;5116014;28;20710;-70
2023/05/20 00:58:40;;;;;;;4.27;4.23;;;;;;;-145.94;45.52;77430.50;5097739;28;20217;-70
2023/05/20 01:01:07;;;;;;;4.67;4.37;;;;;;;-145.94;45.57;77420.28;5116057;28;20616;-70
2023/05/20 01:03:34;;;;;;;4.90;4.80;;;;;;;-145.94;45.93;77418.25;5115993;28;20185;-70
2023/05/20 01:06:01;;;;;;;4.17;4.10;;;;;;;-145.94;45.72;77426.41;5116529;28;20177;-70
2023/05/20 01:08:28;;;;;;;4.60;4.43;;;;;;;-145.94;45.76;77430.50;5097564;28;20218;-70
2023/05/20 01:11:30;;;;;;;5.40;5.03;;;;;;;-145.94;45.89;77424.38;5097565;28;20197;-70
2023/05/20 01:14:02;;;;;;;4.47;4.40;;;;;;;-145.94;45.94;77426.41;5097431;28;20196;-70
2023/05/20 01:16:30;;;;;;;4.90;4.60;;;;;;;-145.94;45.79;77426.41;5097437;28;20683;-70
2023/05/20 01:18:58;;;;;;;4.60;4.50;;;;;;;-145.94;46.03;77420.28;5115561;28;20205;-70
2023/05/20 01:21:29;;;;;;;4.47;4.47;;;;;;;-145.94;46.38;77428.44;5098168;28;20238;-70
2023/05/20 01:23:55;;;;;;;4.43;4.43;;;;;;;-145.94;46.39;77430.50;5080673;28;20219;-70
2023/05/20 01:26:25;;;;;;;4.93;4.83;;;;;;;-145.94;46.59;77426.41;5097575;28;20557;-70
2023/05/20 01:28:52;;;;;;;4.80;4.70;;;;;;;-145.94;46.22;77434.56;5115308;28;20221;-70
2023/05/20 01:31:23;;;;;;;5.47;5.37;;;;;;;-145.94;46.67;77430.50;5097229;28;20196;-70
2023/05/20 01:33:56;;;;;;;4.33;4.33;;;;;;;-145.94;46.33;77430.50;5116017;28;20177;-70
2023/05/20 01:36:25;;;;;;;4.93;4.63;;;;;;;-145.94;46.45;77434.56;5115555;28;20748;-70
2023/05/20 01:38:53;;;;;;;5.00;4.80;;;;;;;-145.94;46.34;77430.50;5096928;28;20220;-70
2023/05/20 01:41:23;;;;;;;5.17;4.70;;;;;;;-145.94;46.48;77440.69;5115499;28;20257;-70
2023/05/20 01:43:54;;;;;;;4.80;4.60;;;;;;;-145.94;46.81;77444.75;5096904;28;20189;-70
2023/05/20 01:46:20;;;;;;;4.87;4.37;;;;;;;-145.94;46.66;77444.75;5096820;28;20189;-70
2023/05/20 01:48:47;;;;;;;4.87;4.77;;;;;;;-145.94;46.61;77442.72;5115013;28;20201;-70
2023/05/20 01:51:13;;;;;;;4.50;4.40;;;;;;;-145.94;47.28;77442.72;5114415;28;20193;-70
2023/05/20 01:53:42;;;;;;;4.43;4.43;;;;;;;-145.94;47.04;77446.81;5114983;28;20192;-70
2023/05/20 01:56:08;;;;;;;4.87;4.77;;;;;;;-145.94;47.53;77444.75;5114894;28;20786;-70
2023/05/20 01:58:35;;;;;;;5.10;4.83;;;;;;;-145.94;47.41;77448.84;5096586;28;20205;-70
2023/05/20 02:01:02;;;;;;;4.77;4.67;;;;;;;-145.94;47.73;77450.88;5096559;28;20196;-70
2023/05/20 02:03:29;;;;;;;5.53;5.13;;;;;;;-145.94;47.33;77452.91;5096529;28;20667;-70
2023/05/20 02:05:56;;;;;;;6.00;4.87;;;;;;;-145.94;48.10;77465.16;5096507;28;20196;-70
2023/05/20 02:08:22;;;;;;;4.50;4.50;;;;;;;-145.94;48.07;77467.19;5096395;28;20262;-70
2023/05/20 02:10:49;;;;;;;4.83;4.73;;;;;;;-145.94;48.19;77473.31;5114948;28;20704;-70
2023/05/20 02:13:15;;;;;;;5.23;5.13;;;;;;;-145.94;48.28;77475.34;5096321;28;20217;-70
2023/05/20 02:15:42;;;;;;;5.17;4.97;;;;;;;-145.94;48.11;77475.34;5096332;28;20193;-70
2023/05/20 02:18:11;;;;;;;5.47;5.37;;;;;;;-145.94;48.36;77481.47;5114688;28;20694;-70
2023/05/20 02:20:37;;;;;;;5.27;4.90;;;;;;;-145.94;48.24;77485.56;5114488;28;20267;-70
2023/05/20 02:23:07;;;;;;;5.10;5.00;;;;;;;-145.94;48.78;77485.56;5114427;28;20193;-70
2023/05/20 02:25:35;;;;;;;4.50;4.30;;;;;;;-145.94;48.77;77493.72;5096194;28;20195;-70
2023/05/20 02:28:04;;;;;;;4.67;4.53;;;;;;;-145.94;49.06;77487.59;5114279;28;20665;-70
2023/05/20 02:30:31;;;;;;;4.50;4.50;;;;;;;-145.94;49.02;77497.78;5096096;28;20188;-70
2023/05/20 02:32:58;;;;;;;5.07;4.87;;;;;;;-145.94;49.17;77495.75;5114840;28;20189;-70
2023/05/20 02:35:25;;;;;;;4.57;4.57;;;;;;;-145.94;48.97;77505.94;5095972;28;20614;-70
2023/05/20 02:37:52;;;;;;;4.90;4.90;;;;;;;-145.94;49.44;77505.94;5095804;28;20721;-70
2023/05/20 02:40:18;;;;;;;4.63;4.63;;;;;;;-145.94;49.30;77505.94;5095911;28;20197;-70
2023/05/20 02:42:45;;;;;;;5.30;5.17;;;;;;;-145.94;49.42;77499.84;5114395;28;20190;-70
2023/05/20 02:45:12;;;;;;;4.83;4.83;;;;;;;-145.94;50.14;77510.03;5114066;28;20189;-70
2023/05/20 02:47:38;;;;;;;7.80;5.10;;;;;;;-145.94;50.19;77510.03;5095795;28;20213;-70
2023/05/20 02:50:05;;;;;;;9.50;5.40;;;;;;;-145.94;49.83;77503.91;5095782;28;20184;-70
2023/05/20 02:52:32;;;;;;;4.63;4.53;;;;;;;-145.94;50.26;77505.94;5095747;28;20185;-70
2023/05/20 02:54:59;;;;;;;5.10;4.90;;;;;;;-145.94;49.97;77505.94;5114209;28;20184;-70
2023/05/20 02:57:27;;;;;;;5.27;5.10;;;;;;;-145.94;49.93;77503.91;5096140;28;20589;-70
2023/05/20 02:59:54;;;;;;;5.13;5.03;;;;;;;-145.94;50.61;77514.09;5113680;28;20195;-71
2023/05/20 03:02:22;;;;;;;5.13;4.87;;;;;;;-145.94;50.64;77518.19;5094704;28;20276;-70
2023/05/20 03:04:49;;;;;;;4.93;4.83;;;;;;;-145.94;50.79;77510.03;5113803;28;20246;-70
2023/05/20 03:07:18;;;;;;;5.27;4.87;;;;;;;-145.94;50.71;77516.16;5113742;28;20198;-70
2023/05/20 03:09:45;;;;;;;5.20;5.07;;;;;;;-145.94;50.89;77528.38;5113696;28;20188;-70
2023/05/20 03:12:11;;;;;;;5.10;5.00;;;;;;;-145.94;51.32;77524.31;5114320;28;20180;-70
2023/05/20 03:14:37;;;;;;;5.53;5.43;;;;;;;-145.94;51.10;77520.22;5113737;28;20174;-70
2023/05/20 03:17:04;;;;;;;6.47;4.53;;;;;;;-145.94;51.23;77524.31;5113545;28;20600;-70
2023/05/20 03:19:32;;;;;;;4.63;4.50;;;;;;;-145.94;51.13;77524.31;5095486;28;20209;-70
2023/05/20 03:21:59;;;;;;;4.97;4.87;;;;;;;-145.94;51.49;77526.34;5095364;28;20283;-70
2023/05/20 03:24:27;;;;;;;13.80;5.10;;;;;;;-145.94;51.57;77534.50;5095370;28;20564;-70
2023/05/20 03:26:54;;;;;;;4.90;4.90;;;;;;;-145.94;51.37;77536.53;5095273;28;20254;-70
2023/05/20 03:29:22;;;;;;;6.13;4.63;;;;;;;-145.94;51.50;77536.53;5113506;28;20193;-70
2023/05/20 03:31:48;;;;;;;5.57;5.30;;;;;;;-145.94;51.71;77538.59;5095270;28;20215;-70
2023/05/20 03:34:15;;;;;;;4.83;4.73;;;;;;;-145.94;51.59;77532.47;5095258;28;20193;-69
2023/05/20 03:36:43;;;;;;;5.20;5.10;;;;;;;-145.94;51.65;77536.53;5095350;28;20213;-68
2023/05/20 03:39:10;;;;;;;5.67;5.37;;;;;;;-145.94;51.48;77534.50;5095264;28;20189;-68
2023/05/20 03:41:36;;;;;;;4.23;4.07;;;;;;;-145.94;51.92;77536.53;5095192;28;20196;-68
2023/05/20 03:44:03;;;;;;;5.83;5.60;;;;;;;-145.94;52.03;77540.63;5095164;28;20629;-68
2023/05/20 03:46:31;;;;;;;6.13;5.27;;;;;;;-145.94;52.39;77540.63;5113364;28;20181;-68
2023/05/20 03:48:57;;;;;;;5.27;5.10;;;;;;;-145.94;52.33;77532.47;5095080;28;20222;-68
2023/05/20 03:51:24;;;;;;;4.67;4.53;;;;;;;-145.94;52.41;77532.47;5095152;28;20544;-68
2023/05/20 03:53:53;;;;;;;5.27;4.77;;;;;;;-145.94;52.21;77532.47;5095071;28;20256;-68
2023/05/20 03:56:21;;;;;;;4.70;4.70;;;;;;;-145.94;52.18;77532.47;5094965;28;20199;-68
2023/05/20 03:58:47;;;;;;;5.70;5.30;;;;;;;-145.94;52.17;77534.50;5094983;28;20216;-68
2023/05/20 04:01:14;;;;;;;4.80;4.70;;;;;;;-145.94;52.25;77532.47;5094964;28;20705;-68
2023/05/20 04:03:43;;;;;;;4.93;4.80;;;;;;;-145.94;52.19;77530.44;5095112;28;20674;-68
2023/05/20 04:06:10;;;;;;;4.67;4.57;;;;;;;-145.94;52.34;77530.44;5094976;28;20189;-68
2023/05/20 04:08:36;;;;;;;5.20;4.67;;;;;;;-145.94;52.55;77534.50;5094805;28;20207;-68
2023/05/20 04:11:03;;;;;;;5.10;4.90;;;;;;;-145.94;52.55;77532.47;5094873;28;20201;-68
2023/05/20 04:13:29;;;;;;;4.60;4.60;;;;;;;-145.94;52.59;77524.31;5113946;28;20186;-68
2023/05/20 04:15:56;;;;;;;5.90;5.57;;;;;;;-145.94;53.27;77532.47;5098639;28;20185;-68
2023/05/20 04:18:23;;;;;;;5.50;4.73;;;;;;;-145.94;53.16;77528.38;5098552;28;20233;-68
2023/05/20 04:20:53;;;;;;;4.63;4.53;;;;;;;-145.94;52.97;77532.47;5098566;28;20685;-68
2023/05/20 04:23:20;;;;;;;5.50;5.10;;;;;;;-145.94;53.28;77528.38;5081887;28;20191;-68
2023/05/20 04:25:47;;;;;;;4.47;4.43;;;;;;;-145.94;53.03;77526.34;5098396;28;20207;-68
2023/05/20 04:28:15;;;;;;;6.10;5.80;;;;;;;-145.94;53.06;77524.31;5098247;28;20214;-68
2023/05/20 04:30:43;;;;;;;5.40;5.30;;;;;;;-145.94;53.31;77532.47;5098359;28;20189;-68
2023/05/20 04:33:11;;;;;;;5.93;5.53;;;;;;;-145.94;53.19;77534.50;5098341;28;20663;-68
2023/05/20 04:35:40;;;;;;;5.53;5.33;;;;;;;-145.94;52.83;77532.47;5098346;28;20193;-68
2023/05/20 04:38:08;;;;;;;5.50;5.40;;;;;;;-145.94;52.97;77526.34;5098119;28;20584;-68
2023/05/20 04:40:34;;;;;;;5.57;5.23;;;;;;;-145.94;52.95;77520.22;5098179;28;20190;-68
2023/05/20 04:43:02;;;;;;;5.77;5.57;;;;;;;-145.94;53.40;77518.19;5098152;28;20190;-68
2023/05/20 04:45:29;;;;;;;5.63;5.23;;;;;;;-145.94;53.18;77508.00;5098913;28;20238;-68
2023/05/20 04:47:56;;;;;;;5.67;5.47;;;;;;;-145.94;53.15;77503.91;5116264;28;20266;-68
2023/05/20 04:50:23;;;;;;;5.37;4.97;;;;;;;-145.94;52.96;77495.75;5116528;28;20197;-68
2023/05/20 04:52:50;;;;;;;5.63;5.20;;;;;;;-145.94;53.21;77497.78;5097962;28;20242;-68
2023/05/20 04:55:18;;;;;;;5.60;5.47;;;;;;;-145.94;52.17;77475.34;5116151;28;20174;-68
2023/05/20 04:57:45;;;;;;;5.10;5.00;;;;;;;-145.94;52.69;77477.41;5097694;28;20217;-68
2023/05/20 05:00:12;;;;;;;5.93;5.37;;;;;;;-145.94;52.45;77477.41;5097811;28;20659;-68
2023/05/20 05:02:39;;;;;;;5.63;5.53;;;;;;;-145.94;52.15;77473.31;5097732;28;20213;-68
2023/05/20 05:05:06;;;;;;;5.47;5.37;;;;;;;-145.94;52.42;77467.19;5097767;28;20201;-68
2023/05/20 05:07:33;;;;;;;10.03;6.10;;;;;;;-145.94;52.73;77463.13;5115771;28;20211;-68
2023/05/20 05:10:00;;;;;;;4.90;4.90;;;;;;;-145.94;52.30;77461.09;5097554;28;20241;-68
2023/05/20 05:12:29;;;;;;;5.30;5.10;;;;;;;-145.94;52.06;77442.72;5097495;28;20204;-68
2023/05/20 05:14:57;;;;;;;5.67;5.47;;;;;;;-145.94;52.10;77438.66;5097521;28;20226;-68
2023/05/20 05:17:24;;;;;;;5.63;5.50;;;;;;;-145.94;52.26;77430.50;5097387;28;20213;-68
2023/05/20 05:19:51;;;;;;;7.17;6.00;;;;;;;-145.94;51.97;77416.22;5097301;28;20193;-69
2023/05/20 05:22:17;;;;;;;6.63;5.80;;;;;;;-145.94;51.64;77399.91;5098123;28;20196;-68
2023/05/20 05:24:43;;;;;;;8.03;5.17;;;;;;;-145.94;51.70;77389.69;5096527;28;20197;-68
2023/05/20 05:27:10;;;;;;;4.70;4.70;;;;;;;-145.94;51.90;77383.59;5096781;28;20679;-68
2023/05/20 05:29:36;;;;;;;6.00;5.70;;;;;;;-145.94;51.51;77369.31;5097167;28;20181;-68
2023/05/20 05:32:03;;;;;;;5.67;5.37;;;;;;;-145.94;50.98;77371.34;5097196;28;20212;-67
2023/05/20 05:34:30;;;;;;;9.57;6.30;;;;;;;-145.94;51.50;77361.16;5097090;28;20221;-68
2023/05/20 05:36:56;;;;;;;5.87;5.57;;;;;;;-145.94;51.17;77357.06;5097030;28;20683;-68
2023/05/20 05:39:23;;;;;;;5.97;5.57;;;;;;;-145.94;50.73;77353.00;5097324;28;20246;-68
2023/05/20 05:41:50;;;;;;;5.60;5.50;;;;;;;-145.94;50.84;77334.63;5096993;28;20192;-68
2023/05/20 05:44:17;;;;;;;5.60;5.37;;;;;;;-145.94;51.30;77330.56;5096966;28;20616;-68
2023/05/20 05:46:45;;;;;;;6.83;6.53;;;;;;;-145.94;50.99;77326.47;5115342;28;20657;-68
2023/05/20 05:49:11;;;;;;;6.60;6.50;;;;;;;-145.94;50.35;77320.34;5096775;28;20196;-69
2023/05/20 05:51:38;;;;;;;6.73;6.43;;;;;;;-145.94;50.55;77312.19;5096642;28;20185;-68
2023/05/20 05:54:05;;;;;;;5.90;5.60;;;;;;;-145.94;50.74;77299.97;5096777;28;20665;-68
2023/05/20 05:56:32;;;;;;;5.77;5.67;;;;;;;-145.94;50.67;77299.97;5096666;28;20292;-68
2023/05/20 05:58:58;;;;;;;6.73;6.10;;;;;;;-145.94;50.86;77287.72;5096605;28;20224;-68
2023/05/20 06:01:25;;;;;;;5.50;5.40;;;;;;;-145.94;50.57;77265.28;5097468;28;20598;-69
2023/05/20 06:03:52;;;;;;;5.50;5.40;;;;;;;-145.94;50.42;77259.19;5096423;28;20197;-68
2023/05/20 06:06:19;;;;;;;6.77;6.27;;;;;;;-145.94;49.62;77242.88;5114726;28;20651;-68
2023/05/20 06:08:46;;;;;;;8.23;6.47;;;;;;;-145.94;49.54;77242.88;5096358;28;20227;-69
2023/05/20 06:11:13;;;;;;;6.83;6.07;;;;;;;-145.94;49.54;77230.63;5096367;28;20196;-68
2023/05/20 06:13:40;;;;;;;6.20;5.80;;;;;;;-145.94;49.39;77232.66;5097203;28;20288;-68
2023/05/20 06:16:07;;;;;;;5.73;5.63;;;;;;;-145.94;49.56;77216.34;5096697;28;20196;-68
2023/05/20 06:18:33;;;;;;;6.97;6.70;;;;;;;-145.94;49.67;77206.16;5115236;28;20300;-69
2023/05/20 06:21:03;;;;;;;6.20;5.97;;;;;;;-145.94;48.99;77208.19;5096314;28;20831;-68
2023/05/20 06:23:30;;;;;;;6.90;6.50;;;;;;;-145.94;48.70;77198.00;5096267;28;20572;-68
2023/05/20 06:26:00;;;;;;;7.23;6.53;;;;;;;-145.94;49.47;77185.75;5096217;28;20199;-68
2023/05/20 06:28:27;;;;;;;6.80;6.70;;;;;;;-145.94;48.80;77173.53;5096890;28;20215;-68
2023/05/20 06:30:54;;;;;;;9.73;6.20;;;;;;;-145.94;48.82;77161.28;5097344;28;20196;-68
2023/05/20 06:33:26;;;;;;;16.43;6.97;;;;;;;-145.94;48.53;77144.97;5096865;28;20624;-68
2023/05/20 06:35:55;;;;;;;6.80;6.37;;;;;;;-145.94;48.30;77134.78;5096929;28;20197;-68
2023/05/20 06:38:22;;;;;;;6.70;6.20;;;;;;;-145.94;48.21;77120.50;5115065;28;20220;-70
2023/05/20 06:40:49;;;;;;;6.20;6.00;;;;;;;-145.94;47.88;77108.25;5097075;28;20193;-69
2023/05/20 06:43:16;;;;;;;7.83;7.33;;;;;;;-145.94;47.93;77118.47;5096877;28;20185;-71
2023/05/20 06:46:06;;;;;;;7.97;7.03;;;;;;;-145.94;48.15;77106.22;5086465;28;20244;-71
2023/05/20 06:48:36;;;;;;;6.60;6.50;;;;;;;-145.94;47.81;77102.16;5097987;28;20204;-71
2023/05/20 06:51:07;;;;;;;6.27;6.17;;;;;;;-145.94;47.73;77098.06;5096598;28;20195;-72
2023/05/20 06:53:34;;;;;;;6.93;6.83;;;;;;;-145.94;47.64;77100.09;5097198;28;20340;-72
2023/05/20 06:56:01;;;;;;;7.20;7.00;;;;;;;-145.94;47.06;77089.91;5096574;28;20185;-71
2023/05/20 06:58:28;;;;;;;7.63;7.03;;;;;;;-145.94;47.52;77102.16;5096661;28;20216;-71
2023/05/20 07:00:56;;;;;;;7.00;6.43;;;;;;;-145.94;47.68;77096.03;5096829;28;20231;-71
2023/05/20 07:03:23;;;;;;;7.17;6.30;;;;;;;-145.94;48.27;77126.63;5098563;28;20332;-71
2023/05/20 07:05:50;;;;;;;9.97;6.67;;;;;;;-145.94;48.52;77122.53;5097472;28;20193;-72
2023/05/20 07:08:18;;;;;;;7.10;6.73;;;;;;;-145.94;48.19;77124.56;5096570;28;20254;-71
2023/05/20 07:10:45;;;;;;;7.40;6.93;;;;;;;-145.94;48.30;77130.69;5095508;28;20197;-71
2023/05/20 07:13:14;;;;;;;9.40;6.23;;;;;;;-145.94;48.23;77136.81;5096070;28;20276;-71
2023/05/20 07:15:41;;;;;;;6.30;6.10;;;;;;;-145.94;48.97;77147.00;5114001;28;20192;-71
2023/05/20 07:18:08;;;;;;;8.00;7.43;;;;;;;-145.94;48.96;77144.97;5095201;28;20220;-72
2023/05/20 07:20:35;;;;;;;20.77;6.60;;;;;;;-145.94;49.17;77136.81;5095463;28;20197;-72
2023/05/20 07:23:05;;;;;;;7.57;7.30;;;;;;;-145.94;48.13;77140.91;5095387;28;20185;-71
2023/05/20 07:25:40;;;;;;;7.77;7.20;;;;;;;-145.94;48.49;77130.69;5113890;28;20173;-72
2023/05/20 07:28:07;;;;;;;7.80;7.23;;;;;;;-145.94;48.27;77124.56;5095110;28;20223;-72
2023/05/20 07:30:34;;;;;;;8.93;7.23;;;;;;;-145.94;48.42;77124.56;5095321;28;20199;-71
2023/05/20 07:33:29;;;;;;;11.93;8.10;;;;;;;-145.94;48.50;77110.31;5102917;28;20254;-71
2023/05/20 07:35:57;;;;;;;7.87;7.30;;;;;;;-145.94;49.19;77106.22;5095317;28;20193;-71
2023/05/20 07:38:23;;;;;;;7.93;6.70;;;;;;;-145.94;49.55;77102.16;5095116;28;20271;-71
2023/05/20 07:40:55;;;;;;;19.23;8.13;;;;;;;-145.94;48.74;77096.03;5095846;28;20560;-71
2023/05/20 07:43:22;;;;;;;7.27;6.77;;;;;;;-145.94;49.35;77102.16;5095242;28;20193;-71
2023/05/20 07:45:49;;;;;;;8.20;7.43;;;;;;;-145.94;48.85;77100.09;5095125;28;20664;-71
2023/05/20 07:48:16;;;;;;;22.53;9.10;;;;;;;-145.94;49.24;77116.41;5095552;28;20205;-71
2023/05/20 07:50:43;;;;;;;9.50;9.00;;;;;;;-145.94;49.06;77126.63;5117466;28;20527;-71
2023/05/20 07:53:10;;;;;;;8.33;7.83;;;;;;;-145.94;49.39;77134.78;5099177;28;20280;-71
2023/05/20 07:55:38;;;;;;;9.33;9.03;;;;;;;-145.94;49.33;77134.78;5099021;28;20715;-71
2023/05/20 07:58:05;;;;;;;7.70;7.23;;;;;;;-145.94;49.46;77132.72;5098865;28;20622;-72
2023/05/20 08:00:33;;;;;;;8.53;8.13;;;;;;;-145.94;49.46;77147.00;5098887;28;20648;-72
2023/05/20 08:03:03;;;;;;;9.07;8.53;;;;;;;-145.94;49.35;77159.25;5098909;28;20716;-71
2023/05/20 08:05:40;;;;;;;10.57;9.50;;;;;;;-145.94;50.25;77169.44;5099813;28;20318;-71
2023/05/20 08:08:09;;;;;;;9.57;8.87;;;;;;;-145.94;49.88;77163.31;5116977;28;20208;-71
2023/05/20 08:10:46;;;;;;;8.73;8.23;;;;;;;-145.94;50.09;77161.28;5099113;28;20290;-70
2023/05/20 08:13:13;;;;;;;9.37;8.37;;;;;;;-145.94;49.94;77155.16;5116980;28;20265;-72
2023/05/20 08:15:39;;;;;;;8.93;8.50;;;;;;;-145.94;49.78;77163.31;5098629;28;20185;-72
2023/05/20 08:18:06;;;;;;;8.77;8.57;;;;;;;-145.94;49.42;77147.00;5098502;28;20213;-71
2023/05/20 08:20:33;;;;;;;8.97;8.57;;;;;;;-145.94;49.51;77159.25;5098477;28;20189;-71
2023/05/20 08:22:59;;;;;;;9.27;8.60;;;;;;;-145.94;49.86;77161.28;5098453;28;20292;-71
2023/05/20 08:25:26;;;;;;;10.17;9.67;;;;;;;-145.94;49.92;77155.16;5098454;28;20200;-71
2023/05/20 08:27:53;;;;;;;13.27;9.40;;;;;;;-145.94;49.76;77153.13;5116442;28;20205;-71
2023/05/20 08:30:20;;;;;;;9.37;8.83;;;;;;;-145.94;50.01;77132.72;5098553;28;20559;-71
2023/05/20 08:32:47;;;;;;;9.10;8.60;;;;;;;-145.94;50.51;77134.78;5098307;28;20189;-71
2023/05/20 08:35:14;;;;;;;8.93;8.53;;;;;;;-145.94;49.82;77122.53;5098273;28;20196;-71
2023/05/20 08:37:41;;;;;;;8.40;8.10;;;;;;;-145.94;50.42;77116.41;5098670;28;20640;-71
2023/05/20 08:40:08;;;;;;;9.30;8.90;;;;;;;-145.94;49.75;77102.16;5098228;28;20201;-72
2023/05/20 08:42:35;;;;;;;9.10;8.63;;;;;;;-145.94;49.35;77100.09;5098092;28;20189;-71
2023/05/20 08:45:02;;;;;;;8.63;8.33;;;;;;;-145.94;49.74;77094.00;5097897;28;20224;-71
2023/05/20 08:47:30;;;;;;;9.13;8.83;;;;;;;-145.94;49.69;77083.78;5098194;28;20209;-72
2023/05/20 08:49:57;;;;;;;12.30;8.77;;;;;;;-145.94;49.55;77085.84;5116159;28;20181;-71
2023/05/20 08:52:24;;;;;;;9.13;8.27;;;;;;;-145.94;49.42;77075.63;5116413;28;20185;-72
2023/05/20 08:54:52;;;;;;;9.83;9.17;;;;;;;-145.94;48.66;77069.50;5116246;28;20253;-71
2023/05/20 08:57:20;;;;;;;18.03;9.00;;;;;;;-145.94;49.15;77071.56;5116116;28;20205;-71
2023/05/20 08:59:46;;;;;;;9.57;9.07;;;;;;;-145.94;49.78;77059.31;5116000;28;20208;-71
2023/05/20 09:02:13;;;;;;;10.83;9.77;;;;;;;-145.94;49.62;77047.09;5116295;28;20546;-72
2023/05/20 09:04:40;;;;;;;9.10;8.70;;;;;;;-145.94;49.54;77045.03;5116321;28;20516;-72
2023/05/20 09:07:06;;;;;;;10.17;9.47;;;;;;;-145.94;48.88;77047.09;5116051;28;20728;-71
2023/05/20 09:09:34;;;;;;;8.63;8.30;;;;;;;-145.94;49.28;77038.94;5115932;28;20185;-71
2023/05/20 09:12:02;;;;;;;10.87;9.87;;;;;;;-145.94;50.28;77047.09;5115823;28;20189;-71
2023/05/20 09:14:31;;;;;;;9.87;9.27;;;;;;;-145.94;50.04;77047.09;5116336;28;20272;-71
2023/05/20 09:16:58;;;;;;;19.53;9.00;;;;;;;-145.94;49.29;77034.84;5097243;28;20228;-72
2023/05/20 09:19:25;;;;;;;8.70;8.37;;;;;;;-145.94;49.59;77030.78;5115501;28;20205;-73
2023/05/20 09:21:53;;;;;;;9.07;8.67;;;;;;;-145.94;49.59;77018.53;5115873;28;20651;-72
2023/05/20 09:24:24;;;;;;;10.17;7.83;;;;;;;-145.94;49.65;77018.53;5115983;28;20169;-72
2023/05/20 09:26:51;;;;;;;10.13;9.23;;;;;;;-145.94;49.33;77032.81;5115729;28;20634;-71
2023/05/20 09:29:20;;;;;;;9.07;8.67;;;;;;;-145.94;49.45;77020.56;5115564;28;20189;-70
2023/05/20 09:31:47;;;;;;;9.83;8.87;;;;;;;-145.94;49.55;77032.81;5116033;28;20256;-70
2023/05/20 09:34:15;;;;;;;9.97;9.30;;;;;;;-145.94;48.97;77057.28;5115357;28;20185;-71
2023/05/20 09:36:43;;;;;;;27.33;9.33;;;;;;;-145.94;49.73;77053.19;5115296;28;20170;-71
2023/05/20 09:39:15;;;;;;;13.00;9.63;;;;;;;-145.94;49.31;77069.50;5115535;28;20574;-71
2023/05/20 09:41:55;;;;;;;10.40;9.40;;;;;;;-145.94;49.86;77063.41;5115312;28;20204;-70
2023/05/20 09:44:22;;;;;;;10.33;9.40;;;;;;;-145.94;50.08;77055.25;5115579;28;20180;-71
2023/05/20 09:46:49;;;;;;;13.83;9.80;;;;;;;-145.94;49.06;77059.31;5115139;28;20703;-71
2023/05/20 09:49:16;;;;;;;10.37;9.63;;;;;;;-145.94;49.67;77069.50;5115100;28;20188;-71
2023/05/20 09:51:44;;;;;;;9.47;8.93;;;;;;;-145.94;49.02;77069.50;5114999;28;20655;-71
2023/05/20 09:54:12;;;;;;;10.27;9.50;;;;;;;-145.94;49.67;77067.47;5114900;28;20181;-71
2023/05/20 09:56:41;;;;;;;9.63;8.73;;;;;;;-145.94;50.17;77077.69;5114855;28;20189;-70
2023/05/20 09:59:09;;;;;;;9.77;9.13;;;;;;;-145.94;49.14;77073.59;5115410;28;20270;-70
2023/05/20 10:01:35;;;;;;;9.27;8.63;;;;;;;-145.94;49.91;77069.50;5114827;28;20193;-71
2023/05/20 10:04:06;;;;;;;9.47;8.73;;;;;;;-145.94;50.19;77075.63;5114758;28;20185;-71
2023/05/20 10:06:47;;;;;;;10.50;8.90;;;;;;;-145.94;50.00;77069.50;5115003;28;20173;-71
2023/05/20 10:09:31;;;;;;;8.80;8.23;;;;;;;-145.94;50.39;77069.50;5115336;28;20717;-71
2023/05/20 10:12:19;;;;;;;10.90;9.30;;;;;;;-145.94;50.53;77059.31;5114808;28;20564;-70
2023/05/20 10:15:17;;;;;;;9.87;9.03;;;;;;;-145.94;50.39;77047.09;5115166;28;20512;-70
2023/05/20 10:18:08;;;;;;;8.77;8.23;;;;;;;-145.94;50.20;77038.94;5114806;28;20259;-70
2023/05/20 10:20:46;;;;;;;9.03;8.43;;;;;;;-145.94;49.72;77040.97;5115012;28;20631;-71
2023/05/20 10:23:28;;;;;;;24.43;9.00;;;;;;;-145.94;49.79;77030.78;5114673;28;20688;-71
2023/05/20 10:25:56;;;;;;;9.80;8.97;;;;;;;-145.94;50.15;77020.56;5114725;28;20624;-70
2023/05/20 10:28:35;;;;;;;14.60;8.47;;;;;;;-145.94;50.20;77010.38;5114145;28;20325;-71
2023/05/20 10:31:02;;;;;;;8.80;8.30;;;;;;;-145.94;49.75;77004.25;5114719;28;20181;-71
2023/05/20 10:33:29;;;;;;;10.60;9.50;;;;;;;-145.94;49.43;76998.13;5114125;28;20185;-71
2023/05/20 10:35:59;;;;;;;9.50;9.13;;;;;;;-145.94;50.00;76979.78;5114255;28;20180;-71
2023/05/20 10:38:26;;;;;;;9.00;8.43;;;;;;;-145.94;50.16;76967.56;5114048;28;20204;-71
2023/05/20 10:40:52;;;;;;;9.50;9.07;;;;;;;-145.94;49.97;76961.44;5114489;28;20573;-71
2023/05/20 10:43:28;;;;;;;8.70;8.33;;;;;;;-145.94;49.22;76951.25;5113982;28;20238;-71
2023/05/20 10:45:57;;;;;;;11.13;7.97;;;;;;;-145.94;49.50;76934.94;5114335;28;20272;-71
2023/05/20 10:48:27;;;;;;;9.03;8.20;;;;;;;-145.94;49.51;76928.81;5113852;28;20687;-71
2023/05/20 10:50:56;;;;;;;9.73;8.90;;;;;;;-145.94;49.11;76928.81;5114200;28;20300;-72
2023/05/20 10:53:24;;;;;;;10.57;9.83;;;;;;;-145.94;49.37;76934.94;5114064;28;20185;-71
2023/05/20 10:56:00;;;;;;;11.00;8.57;;;;;;;-145.94;48.70;76910.47;5114088;28;20193;-71
2023/05/20 10:58:26;;;;;;;11.17;10.40;;;;;;;-145.94;48.82;76912.50;5113578;28;20255;-71
2023/05/20 11:00:54;;;;;;;9.80;9.10;;;;;;;-145.94;49.18;76902.28;5114357;28;20181;-70
2023/05/20 11:03:21;;;;;;;10.70;9.37;;;;;;;-145.94;49.34;76904.34;5114232;28;20579;-71
2023/05/20 11:05:50;;;;;;;9.93;9.37;;;;;;;-145.94;49.10;76898.22;5113488;28;20663;-71
2023/05/20 11:08:16;;;;;;;9.53;9.20;;;;;;;-145.94;48.82;76890.06;5113497;28;20207;-70
2023/05/20 11:10:57;;;;;;;14.23;9.87;;;;;;;-145.94;49.52;76877.81;5113817;28;20185;-71
2023/05/20 11:13:25;;;;;;;11.53;9.47;;;;;;;-145.94;48.49;76865.59;5095911;28;20283;-71
2023/05/20 11:15:52;;;;;;;9.70;9.00;;;;;;;-145.94;48.87;76869.66;5113630;28;20185;-71
2023/05/20 11:18:18;;;;;;;9.90;9.37;;;;;;;-145.94;49.53;76855.41;5113479;28;20220;-71
2023/05/20 11:20:46;;;;;;;8.20;8.00;;;;;;;-145.94;49.70;76843.16;5113546;28;20257;-71
2023/05/20 11:23:13;;;;;;;11.13;10.10;;;;;;;-145.94;49.62;76824.81;5113798;28;20674;-71